createdAt,value
2022-08-17T00:01:32.697Z,18.38
2022-08-17T00:04:19.020Z,18.35
2022-08-17T00:06:45.835Z,18.36
2022-08-17T00:09:18.977Z,18.34
2022-08-17T00:12:35.133Z,18.31
2022-08-17T00:14:36.088Z,18.33
2022-08-17T00:17:04.646Z,18.31
2022-08-17T00:19:32.667Z,18.32
2022-08-17T00:22:35.299Z,18.25
2022-08-17T00:24:49.892Z,18.29
2022-08-17T00:27:17.236Z,18.31
2022-08-17T00:29:45.590Z,18.31
2022-08-17T00:33:15.072Z,18.25
2022-08-17T00:34:59.940Z,18.25
2022-08-17T00:37:26.488Z,18.23
2022-08-17T00:39:53.090Z,18.23
2022-08-17T00:42:20.048Z,18.19
2022-08-17T00:44:46.741Z,18.13
2022-08-17T00:47:13.969Z,18.13
2022-08-17T00:49:40.560Z,18.13
2022-08-17T00:52:15.509Z,18.11
2022-08-17T00:54:46.516Z,18.09
2022-08-17T00:57:18.469Z,18.05
2022-08-17T01:00:02.179Z,18.04
2022-08-17T01:02:34.331Z,18.02
2022-08-17T01:05:08.671Z,17.99
2022-08-17T01:07:35.345Z,17.97
2022-08-17T01:10:08.423Z,17.95
2022-08-17T01:12:55.638Z,17.94
2022-08-17T01:15:22.790Z,17.92
2022-08-17T01:17:49.641Z,17.96
2022-08-17T01:20:16.907Z,17.94
2022-08-17T01:22:43.518Z,17.93
2022-08-17T01:25:12.677Z,17.98
2022-08-17T01:27:39.470Z,18.00
2022-08-17T01:30:58.723Z,17.99
2022-08-17T01:32:55.659Z,17.98
2022-08-17T01:35:22.203Z,17.95
2022-08-17T01:37:48.758Z,17.96
2022-08-17T01:40:21.254Z,18.02
2022-08-17T01:42:56.764Z,18.00
2022-08-17T01:45:28.134Z,17.96
2022-08-17T01:47:55.487Z,17.98
2022-08-17T01:50:29.198Z,17.94
2022-08-17T01:52:59.841Z,18.00
2022-08-17T01:55:38.640Z,18.01
2022-08-17T01:58:09.620Z,17.99
2022-08-17T02:00:46.693Z,18.03
2022-08-17T02:03:26.107Z,18.00
2022-08-17T02:05:53.629Z,18.01
2022-08-17T02:08:21.475Z,18.03
2022-08-17T02:11:11.326Z,18.05
2022-08-17T02:13:38.684Z,17.96
2022-08-17T02:16:05.801Z,18.05
2022-08-17T02:18:32.307Z,18.17
2022-08-17T02:20:59.477Z,18.16
2022-08-17T02:23:28.806Z,18.24
2022-08-17T02:25:59.097Z,18.30
2022-08-17T02:28:26.593Z,18.36
2022-08-17T02:31:01.181Z,18.39
2022-08-17T02:33:42.716Z,18.40
2022-08-17T02:36:11.476Z,18.43
2022-08-17T02:38:39.438Z,18.54
2022-08-17T02:41:06.190Z,18.57
2022-08-17T02:43:32.932Z,18.54
2022-08-17T02:45:59.421Z,18.59
2022-08-17T02:48:30.824Z,18.57
2022-08-17T02:50:58.947Z,18.67
2022-08-17T02:53:25.618Z,18.72
2022-08-17T02:55:52.762Z,18.66
2022-08-17T02:58:34.743Z,18.60
2022-08-17T03:01:03.401Z,18.53
2022-08-17T03:03:30.079Z,18.48
2022-08-17T03:05:56.634Z,18.42
2022-08-17T03:08:23.444Z,18.40
2022-08-17T03:10:50.522Z,18.33
2022-08-17T03:13:17.673Z,18.37
2022-08-17T03:15:46.396Z,18.38
2022-08-17T03:18:19.326Z,18.38
2022-08-17T03:20:55.493Z,18.34
2022-08-17T03:23:24.249Z,18.38
2022-08-17T03:25:53.737Z,18.37
2022-08-17T03:28:21.621Z,18.37
2022-08-17T03:30:49.364Z,18.35
2022-08-17T03:33:16.942Z,18.30
2022-08-17T03:35:44.092Z,18.32
2022-08-17T03:38:12.539Z,18.32
2022-08-17T03:40:57.855Z,18.35
2022-08-17T03:43:27.647Z,18.36
2022-08-17T03:46:34.759Z,18.33
2022-08-17T03:49:17.746Z,18.34
2022-08-17T03:52:02.664Z,18.33
2022-08-17T03:54:47.700Z,18.31
2022-08-17T03:57:14.365Z,18.33
2022-08-17T03:59:41.033Z,18.33
2022-08-17T04:02:29.864Z,18.30
2022-08-17T04:04:56.715Z,18.32
2022-08-17T04:07:25.517Z,18.37
2022-08-17T04:09:52.092Z,18.38
2022-08-17T04:12:21.600Z,18.34
2022-08-17T04:14:53.088Z,18.36
2022-08-17T04:17:21.739Z,18.41
2022-08-17T04:19:48.287Z,18.42
2022-08-17T04:22:30.732Z,18.41
2022-08-17T04:25:01.109Z,18.38
2022-08-17T04:27:27.628Z,18.32
2022-08-17T04:29:55.295Z,18.29
2022-08-17T04:33:00.786Z,18.25
2022-08-17T04:35:10.230Z,18.20
2022-08-17T04:37:36.800Z,18.15
2022-08-17T04:40:22.954Z,18.10
2022-08-17T04:43:04.998Z,18.07
2022-08-17T04:45:32.327Z,18.02
2022-08-17T04:47:59.349Z,18.00
2022-08-17T04:50:26.037Z,17.98
2022-08-17T04:52:52.615Z,17.94
2022-08-17T04:55:19.134Z,17.92
2022-08-17T04:57:45.754Z,17.94
2022-08-17T05:00:12.729Z,17.91
2022-08-17T05:02:50.697Z,17.90
2022-08-17T05:05:27.807Z,17.90
2022-08-17T05:07:59.797Z,17.89
2022-08-17T05:10:29.072Z,17.91
2022-08-17T05:13:08.429Z,17.95
2022-08-17T05:15:39.513Z,17.95
2022-08-17T05:18:12.057Z,17.95
2022-08-17T05:20:40.558Z,17.98
2022-08-17T05:23:14.862Z,17.97
2022-08-17T05:25:47.521Z,17.95
2022-08-17T05:28:16.264Z,18.01
2022-08-17T05:30:44.629Z,18.04
2022-08-17T05:33:17.548Z,18.07
2022-08-17T05:35:47.797Z,18.11
2022-08-17T05:38:16.806Z,18.19
2022-08-17T05:40:44.751Z,18.19
2022-08-17T05:43:12.841Z,18.24
2022-08-17T05:46:01.063Z,18.27
2022-08-17T05:48:35.318Z,18.33
2022-08-17T05:51:15.434Z,18.41
2022-08-17T05:54:00.531Z,18.43
2022-08-17T05:56:57.144Z,18.49
2022-08-17T05:59:55.055Z,18.55
2022-08-17T06:02:38.999Z,18.65
2022-08-17T06:05:28.932Z,18.65
2022-08-17T06:08:23.417Z,18.76
2022-08-17T06:11:14.654Z,18.83
2022-08-17T06:13:57.684Z,18.89
2022-08-17T06:16:34.512Z,18.88
2022-08-17T06:19:17.817Z,18.96
2022-08-17T06:21:48.459Z,18.96
2022-08-17T06:24:34.294Z,19.02
2022-08-17T06:27:21.931Z,19.01
2022-08-17T06:30:09.313Z,19.06
2022-08-17T06:32:45.748Z,19.08
2022-08-17T06:35:16.760Z,19.11
2022-08-17T06:37:53.901Z,19.15
2022-08-17T06:40:45.531Z,19.28
2022-08-17T06:43:19.617Z,19.25
2022-08-17T06:46:06.383Z,19.21
2022-08-17T06:48:56.944Z,19.26
2022-08-17T06:51:30.120Z,19.27
2022-08-17T06:54:45.684Z,19.69
2022-08-17T06:57:33.716Z,19.71
2022-08-17T07:00:09.352Z,19.66
2022-08-17T07:03:05.707Z,19.67
2022-08-17T07:05:38.673Z,19.75
2022-08-17T07:08:19.331Z,19.69
2022-08-17T07:10:55.507Z,19.55
2022-08-17T07:13:53.197Z,19.56
2022-08-17T07:16:24.899Z,19.54
2022-08-17T07:18:53.232Z,19.48
2022-08-17T07:21:43.103Z,19.51
2022-08-17T07:24:42.106Z,19.46
2022-08-17T07:27:11.837Z,19.48
2022-08-17T07:29:42.014Z,19.47
2022-08-17T07:32:11.516Z,19.51
2022-08-17T07:35:08.497Z,19.61
2022-08-17T07:37:40.105Z,19.69
2022-08-17T07:40:18.091Z,19.72
2022-08-17T07:43:24.162Z,19.76
2022-08-17T07:46:23.083Z,19.76
2022-08-17T07:48:53.734Z,19.76
2022-08-17T07:51:25.299Z,19.83
2022-08-17T07:53:53.817Z,19.74
2022-08-17T07:56:46.805Z,19.66
2022-08-17T07:59:24.971Z,19.65
2022-08-17T08:01:56.226Z,19.61
2022-08-17T08:07:21.814Z,19.66
2022-08-17T08:10:04.414Z,19.72
2022-08-17T08:12:48.198Z,19.70
2022-08-17T08:15:25.623Z,19.77
2022-08-17T08:17:56.276Z,19.75
2022-08-17T08:20:52.185Z,19.61
2022-08-17T08:23:25.622Z,19.49
2022-08-17T08:26:18.867Z,19.34
2022-08-17T08:29:10.096Z,19.25
2022-08-17T08:32:07.717Z,19.22
2022-08-17T08:35:02.247Z,19.18
2022-08-17T08:37:48.186Z,19.38
2022-08-17T08:40:42.860Z,19.43
2022-08-17T08:43:17.522Z,19.41
2022-08-17T08:46:29.713Z,19.47
2022-08-17T08:49:16.357Z,19.35
2022-08-17T08:51:50.685Z,19.20
2022-08-17T08:54:45.747Z,19.26
2022-08-17T08:57:25.554Z,19.25
2022-08-17T09:00:05.028Z,19.21
2022-08-17T09:02:37.494Z,19.26
2022-08-17T09:05:22.685Z,19.25
2022-08-17T09:07:49.126Z,19.22
2022-08-17T09:10:43.341Z,19.21
2022-08-17T09:13:28.560Z,19.20
2022-08-17T09:15:59.156Z,19.33
2022-08-17T09:19:01.044Z,19.35
2022-08-17T09:21:48.786Z,19.41
2022-08-17T09:24:37.273Z,19.43
2022-08-17T09:27:22.123Z,19.43
2022-08-17T09:29:57.765Z,19.53
2022-08-17T09:32:34.121Z,19.66
2022-08-17T09:35:08.912Z,19.59
2022-08-17T09:37:52.067Z,19.53
2022-08-17T09:40:25.579Z,19.41
2022-08-17T09:43:17.861Z,19.44
2022-08-17T09:45:57.259Z,19.45
2022-08-17T09:48:48.277Z,19.34
2022-08-17T09:51:40.175Z,19.14
2022-08-17T09:54:44.470Z,19.02
2022-08-17T09:57:30.469Z,19.02
2022-08-17T10:00:24.979Z,19.05
2022-08-17T10:03:10.229Z,18.97
2022-08-17T10:05:56.458Z,18.99
2022-08-17T10:08:32.648Z,19.09
2022-08-17T10:11:10.508Z,19.06
2022-08-17T10:13:59.740Z,19.02
2022-08-17T10:16:38.864Z,19.03
2022-08-17T10:19:26.650Z,19.00
2022-08-17T10:22:35.272Z,18.91
2022-08-17T10:25:27.779Z,18.97
2022-08-17T10:28:12.939Z,18.88
2022-08-17T10:30:50.567Z,18.94
2022-08-17T10:33:24.259Z,18.93
2022-08-17T10:36:11.115Z,18.92
2022-08-17T10:38:47.915Z,18.98
2022-08-17T10:41:20.484Z,18.97
2022-08-17T10:44:35.380Z,19.04
2022-08-17T10:47:06.568Z,19.06
2022-08-17T10:49:35.850Z,19.19
2022-08-17T10:52:22.928Z,19.38
2022-08-17T10:54:51.704Z,19.40
2022-08-17T10:57:34.470Z,19.57
2022-08-17T11:00:06.387Z,19.68
2022-08-17T11:02:54.415Z,19.89
2022-08-17T11:05:43.745Z,19.96
2022-08-17T11:08:25.657Z,20.12
2022-08-17T11:11:01.303Z,20.24
2022-08-17T11:13:40.565Z,20.26
2022-08-17T11:16:28.397Z,20.19
2022-08-17T11:19:39.505Z,20.18
2022-08-17T11:22:33.341Z,20.29
2022-08-17T11:25:39.503Z,20.13
2022-08-17T11:28:16.900Z,20.14
2022-08-17T11:31:01.657Z,20.15
2022-08-17T11:33:36.806Z,20.14
2022-08-17T11:37:01.804Z,19.89
2022-08-17T11:40:01.707Z,19.89
2022-08-17T11:42:43.577Z,19.84
2022-08-17T11:45:31.800Z,19.68
2022-08-17T11:48:33.363Z,19.64
2022-08-17T11:51:47.666Z,19.60
2022-08-17T11:54:34.429Z,19.51
2022-08-17T11:57:26.382Z,19.44
2022-08-17T12:00:00.774Z,19.43
2022-08-17T12:02:38.747Z,19.40
2022-08-17T12:05:14.153Z,19.36
2022-08-17T12:07:42.482Z,19.34
2022-08-17T12:10:12.405Z,19.28
2022-08-17T12:12:43.494Z,19.37
2022-08-17T12:15:18.923Z,19.34
2022-08-17T12:17:53.964Z,19.34
2022-08-17T12:20:28.370Z,19.26
2022-08-17T12:23:09.246Z,19.31
2022-08-17T12:25:56.907Z,19.24
2022-08-17T12:28:31.713Z,19.21
2022-08-17T12:31:06.513Z,19.17
2022-08-17T12:33:35.913Z,19.04
2022-08-17T12:36:07.454Z,19.02
2022-08-17T12:38:37.603Z,18.88
2022-08-17T12:41:27.106Z,18.91
2022-08-17T12:44:04.912Z,18.88
2022-08-17T12:46:45.422Z,18.77
2022-08-17T12:49:18.155Z,18.78
2022-08-17T12:51:47.557Z,18.76
2022-08-17T12:54:25.572Z,18.81
2022-08-17T12:56:52.253Z,18.81
2022-08-17T12:59:30.113Z,18.86
2022-08-17T13:01:57.299Z,18.86
2022-08-17T13:04:24.205Z,18.93
2022-08-17T13:06:59.656Z,18.98
2022-08-17T13:09:40.063Z,19.04
2022-08-17T13:12:08.226Z,19.06
2022-08-17T13:14:35.516Z,19.07
2022-08-17T13:17:09.635Z,19.11
2022-08-17T13:19:48.365Z,19.19
2022-08-17T13:22:14.966Z,19.19
2022-08-17T13:24:53.103Z,19.21
2022-08-17T13:27:22.059Z,19.24
2022-08-17T13:29:56.375Z,19.15
2022-08-17T13:32:43.766Z,19.14
2022-08-17T13:35:50.170Z,19.17
2022-08-17T13:38:47.312Z,19.13
2022-08-17T13:41:40.644Z,19.05
2022-08-17T13:44:33.768Z,19.07
2022-08-17T13:47:02.325Z,19.03
2022-08-17T13:49:41.504Z,19.04
2022-08-17T13:52:37.918Z,19.03
2022-08-17T13:55:27.033Z,19.10
2022-08-17T13:58:03.689Z,19.10
2022-08-17T14:00:36.212Z,19.09
2022-08-17T14:03:04.570Z,19.21
2022-08-17T14:05:32.044Z,19.22
2022-08-17T14:08:02.296Z,19.19
2022-08-17T14:10:35.884Z,19.27
2022-08-17T14:13:02.728Z,19.33
2022-08-17T14:15:55.173Z,19.35
2022-08-17T14:18:18.019Z,19.37
2022-08-17T14:21:02.341Z,19.45
2022-08-17T14:23:35.200Z,19.45
2022-08-17T14:26:02.364Z,19.53
2022-08-17T14:28:28.860Z,19.59
2022-08-17T14:30:55.504Z,19.64
2022-08-17T14:33:22.567Z,19.68
2022-08-17T14:35:52.973Z,19.83
2022-08-17T14:38:20.711Z,19.74
2022-08-17T14:40:47.660Z,19.70
2022-08-17T14:43:15.865Z,19.78
2022-08-17T14:45:43.031Z,19.81
2022-08-17T14:48:10.015Z,19.81
2022-08-17T14:50:41.867Z,19.75
2022-08-17T14:53:11.023Z,19.76
2022-08-17T14:55:40.437Z,19.69
2022-08-17T14:58:08.746Z,19.67
2022-08-17T15:00:35.385Z,19.59
2022-08-17T15:03:02.585Z,19.60
2022-08-17T15:05:33.663Z,19.56
2022-08-17T15:08:01.649Z,19.64
2022-08-17T15:10:29.328Z,19.63
2022-08-17T15:12:56.245Z,19.62
2022-08-17T15:15:23.723Z,19.68
2022-08-17T15:17:51.379Z,19.60
2022-08-17T15:20:21.920Z,19.68
2022-08-17T15:23:09.505Z,19.72
2022-08-17T15:25:36.011Z,19.67
2022-08-17T15:28:02.619Z,19.64
2022-08-17T15:30:30.078Z,19.72
2022-08-17T15:32:58.750Z,19.78
2022-08-17T15:35:29.162Z,19.88
2022-08-17T15:38:11.039Z,20.15
2022-08-17T15:40:41.767Z,20.03
2022-08-17T15:43:11.513Z,20.07
2022-08-17T15:45:39.195Z,20.08
2022-08-17T15:48:05.804Z,19.99
2022-08-17T15:50:32.548Z,20.04
2022-08-17T15:53:01.256Z,19.99
2022-08-17T15:55:29.885Z,19.94
2022-08-17T15:57:56.596Z,19.81
2022-08-17T16:00:26.187Z,19.92
2022-08-17T16:03:14.151Z,20.07
2022-08-17T16:05:40.642Z,20.26
2022-08-17T16:08:07.521Z,20.53
2022-08-17T16:10:35.122Z,20.75
2022-08-17T16:13:03.479Z,20.60
2022-08-17T16:15:31.518Z,20.73
2022-08-17T16:17:58.205Z,20.75
2022-08-17T16:20:24.711Z,20.65
2022-08-17T16:22:51.722Z,20.60
2022-08-17T16:25:22.799Z,20.37
2022-08-17T16:28:06.265Z,20.33
2022-08-17T16:30:33.252Z,20.29
2022-08-17T16:33:01.553Z,20.24
2022-08-17T16:35:28.402Z,20.15
2022-08-17T16:37:57.149Z,20.11
2022-08-17T16:40:26.393Z,20.10
2022-08-17T16:42:54.172Z,20.01
2022-08-17T16:45:26.925Z,19.95
2022-08-17T16:47:55.239Z,19.87
2022-08-17T16:50:23.794Z,19.88
2022-08-17T16:52:51.341Z,19.78
2022-08-17T16:55:20.746Z,19.79
2022-08-17T16:57:50.550Z,19.83
2022-08-17T17:00:19.347Z,19.77
2022-08-17T17:02:48.121Z,19.84
2022-08-17T17:05:36.602Z,19.88
2022-08-17T17:08:13.301Z,19.84
2022-08-17T17:10:50.805Z,19.87
2022-08-17T17:13:26.041Z,19.90
2022-08-17T17:15:58.565Z,19.94
2022-08-17T17:18:47.875Z,19.92
2022-08-17T17:21:19.834Z,19.92
2022-08-17T17:23:54.859Z,19.90
2022-08-17T17:26:29.747Z,19.88
2022-08-17T17:29:47.306Z,19.80
2022-08-17T17:32:41.636Z,19.77
2022-08-17T17:35:22.938Z,19.72
2022-08-17T17:37:50.367Z,19.66
2022-08-17T17:40:39.438Z,19.66
2022-08-17T17:43:37.145Z,19.66
2022-08-17T17:46:07.719Z,19.60
2022-08-17T17:48:48.180Z,19.64
2022-08-17T17:51:54.698Z,19.60
2022-08-17T17:54:32.430Z,19.60
2022-08-17T17:57:11.028Z,19.61
2022-08-17T17:59:54.812Z,19.61
2022-08-17T18:02:52.752Z,19.56
2022-08-17T18:05:50.715Z,19.57
2022-08-17T18:08:53.276Z,19.48
2022-08-17T18:11:39.872Z,19.47
2022-08-17T18:14:36.357Z,19.41
2022-08-17T18:17:03.076Z,19.34
2022-08-17T18:19:31.810Z,19.26
2022-08-17T18:22:13.081Z,19.25
2022-08-17T18:24:44.768Z,19.20
2022-08-17T18:27:32.043Z,19.17
2022-08-17T18:30:12.631Z,19.17
2022-08-17T18:32:44.442Z,19.12
2022-08-17T18:35:11.064Z,19.11
2022-08-17T18:37:43.403Z,19.10
2022-08-17T18:40:19.573Z,19.06
2022-08-17T18:43:20.245Z,19.04
2022-08-17T18:45:49.471Z,18.99
2022-08-17T18:48:28.024Z,18.92
2022-08-17T18:50:59.149Z,18.93
2022-08-17T18:53:39.309Z,18.92
2022-08-17T18:56:24.950Z,18.88
2022-08-17T18:58:53.846Z,18.82
2022-08-17T19:01:21.693Z,18.81
2022-08-17T19:04:27.399Z,18.83
2022-08-17T19:07:25.286Z,18.81
2022-08-17T19:10:18.003Z,18.83
2022-08-17T19:12:53.702Z,18.79
2022-08-17T19:15:31.308Z,18.76
2022-08-17T19:18:02.243Z,18.69
2022-08-17T19:20:35.373Z,18.75
2022-08-17T19:23:21.160Z,18.74
2022-08-17T19:25:53.557Z,18.73
2022-08-17T19:28:27.655Z,18.73
2022-08-17T19:31:03.357Z,18.69
2022-08-17T19:33:31.408Z,18.70
2022-08-17T19:36:09.930Z,18.64
2022-08-17T19:38:53.875Z,18.64
2022-08-17T19:41:29.537Z,18.63
2022-08-17T19:44:27.009Z,18.63
2022-08-17T19:47:12.409Z,18.61
2022-08-17T19:49:48.496Z,18.64
2022-08-17T19:52:27.018Z,18.67
2022-08-17T19:55:03.089Z,18.63
2022-08-17T19:57:43.914Z,18.63
2022-08-17T20:00:14.854Z,18.61
2022-08-17T20:03:06.371Z,18.61
2022-08-17T20:06:08.559Z,18.59
2022-08-17T20:08:29.240Z,18.56
2022-08-17T20:10:55.687Z,18.56
2022-08-17T20:14:03.849Z,18.49
2022-08-17T20:16:33.314Z,18.44
2022-08-17T20:19:06.624Z,18.45
2022-08-17T20:21:52.159Z,18.39
2022-08-17T20:24:41.930Z,18.34
2022-08-17T20:27:19.690Z,18.40
2022-08-17T20:30:05.490Z,18.36
2022-08-17T20:32:58.096Z,18.33
2022-08-17T20:35:33.754Z,18.30
2022-08-17T20:38:04.282Z,18.27
2022-08-17T20:40:35.689Z,18.28
2022-08-17T20:43:33.212Z,18.28
2022-08-17T20:46:26.814Z,18.28
2022-08-17T20:48:58.534Z,18.28
2022-08-17T20:51:34.822Z,18.29
2022-08-17T20:54:08.168Z,18.24
2022-08-17T20:56:43.993Z,18.25
2022-08-17T20:59:55.133Z,18.24
2022-08-17T21:02:23.834Z,18.23
2022-08-17T21:04:50.476Z,18.22
2022-08-17T21:07:43.728Z,18.19
2022-08-17T21:10:18.355Z,18.17
2022-08-17T21:12:50.654Z,18.17
2022-08-17T21:15:17.193Z,18.17
2022-08-17T21:17:50.240Z,18.13
2022-08-17T21:21:00.795Z,18.11
2022-08-17T21:23:37.457Z,18.10
2022-08-17T21:26:17.305Z,18.15
2022-08-17T21:29:29.997Z,18.15
2022-08-17T21:32:09.601Z,18.14
2022-08-17T21:34:44.701Z,18.15
2022-08-17T21:37:20.834Z,18.16
2022-08-17T21:39:52.482Z,18.11
2022-08-17T21:42:34.433Z,18.14
2022-08-17T21:45:11.954Z,18.12
2022-08-17T21:47:48.764Z,18.13
2022-08-17T21:50:23.450Z,18.16
2022-08-17T21:52:56.006Z,18.11
2022-08-17T21:55:28.642Z,18.11
2022-08-17T21:58:19.255Z,18.11
2022-08-17T22:00:45.953Z,18.08
2022-08-17T22:03:26.018Z,18.02
2022-08-17T22:05:52.615Z,17.94
2022-08-17T22:08:21.861Z,17.89
2022-08-17T22:10:51.224Z,17.87
2022-08-17T22:13:17.894Z,17.82
2022-08-17T22:16:15.222Z,17.77
2022-08-17T22:18:43.418Z,17.69
2022-08-17T22:21:09.953Z,17.61
2022-08-17T22:24:01.030Z,17.64
2022-08-17T22:27:01.778Z,17.70
2022-08-17T22:30:14.500Z,17.72
2022-08-17T22:32:45.500Z,17.72
2022-08-17T22:35:42.620Z,17.75
2022-08-17T22:38:18.579Z,17.82
2022-08-17T22:40:54.482Z,17.77
2022-08-17T22:43:26.554Z,17.76
2022-08-17T22:45:57.537Z,17.76
2022-08-17T22:48:29.400Z,17.80
2022-08-17T22:51:23.145Z,17.75
2022-08-17T22:54:17.397Z,17.76
2022-08-17T22:57:33.701Z,17.73
2022-08-17T23:00:00.586Z,17.75
2022-08-17T23:02:32.723Z,17.72
2022-08-17T23:08:00.667Z,17.66
2022-08-17T23:13:12.411Z,17.61
2022-08-17T23:15:40.942Z,17.59
2022-08-17T23:18:07.925Z,17.56
2022-08-17T23:20:36.460Z,17.60
2022-08-17T23:23:06.775Z,17.61
2022-08-17T23:25:35.137Z,17.56
2022-08-17T23:28:04.839Z,17.59
2022-08-17T23:30:35.582Z,17.61
2022-08-17T23:33:06.475Z,17.58
2022-08-17T23:35:39.258Z,17.55
2022-08-17T23:38:07.666Z,17.54
2022-08-17T23:40:34.512Z,17.53
2022-08-17T23:43:01.181Z,17.51
2022-08-17T23:45:32.614Z,17.48
2022-08-17T23:48:00.301Z,17.52
2022-08-17T23:50:30.001Z,17.51
2022-08-17T23:52:57.922Z,17.52
2022-08-17T23:55:24.421Z,17.56
2022-08-17T23:57:51.124Z,17.54
